createdAt,value
2023-03-12T00:01:48.132Z,79.29
2023-03-12T00:04:18.645Z,79.25
2023-03-12T00:06:49.153Z,79.34
2023-03-12T00:13:11.790Z,78.86
2023-03-12T00:15:42.476Z,78.78
2023-03-12T00:18:13.045Z,78.98
2023-03-12T00:20:43.409Z,78.99
2023-03-12T00:23:13.899Z,78.67
2023-03-12T00:25:46.792Z,78.60
2023-03-12T00:28:20.013Z,78.72
2023-03-12T00:30:52.187Z,78.49
2023-03-12T00:33:22.876Z,78.61
2023-03-12T00:35:53.291Z,78.63
2023-03-12T00:38:24.038Z,78.33
2023-03-12T00:40:54.511Z,78.27
2023-03-12T00:43:27.771Z,78.57
2023-03-12T00:45:58.395Z,78.37
2023-03-12T00:48:28.977Z,78.22
2023-03-12T00:50:59.597Z,78.49
2023-03-12T00:53:30.062Z,78.64
2023-03-12T00:56:00.811Z,78.30
2023-03-12T00:58:34.239Z,78.28
2023-03-12T01:01:04.786Z,78.33
2023-03-12T01:03:35.393Z,78.42
2023-03-12T01:06:06.128Z,78.73
2023-03-12T01:08:36.843Z,78.72
2023-03-12T01:11:07.857Z,78.95
2023-03-12T01:13:41.005Z,78.69
2023-03-12T01:16:11.924Z,78.94
2023-03-12T01:18:42.621Z,79.08
2023-03-12T01:21:13.142Z,79.08
2023-03-12T01:23:43.703Z,79.02
2023-03-12T01:26:14.358Z,79.05
2023-03-12T01:28:47.770Z,78.87
2023-03-12T01:31:21.154Z,78.96
2023-03-12T01:33:53.140Z,78.78
2023-03-12T01:36:25.390Z,78.96
2023-03-12T01:38:58.277Z,79.01
2023-03-12T01:41:32.536Z,78.87
2023-03-12T01:44:06.826Z,78.85
2023-03-12T01:46:38.853Z,79.01
2023-03-12T01:49:19.027Z,79.16
2023-03-12T01:51:55.382Z,79.00
2023-03-12T01:54:33.018Z,78.98
2023-03-12T01:57:04.224Z,79.14
2023-03-12T01:59:42.095Z,79.26
2023-03-12T02:02:12.626Z,78.96
2023-03-12T02:04:46.026Z,79.30
2023-03-12T02:07:18.569Z,79.17
2023-03-12T02:09:51.982Z,79.26
2023-03-12T02:12:22.621Z,79.39
2023-03-12T02:14:56.265Z,79.36
2023-03-12T02:17:27.407Z,79.26
2023-03-12T02:20:08.129Z,79.39
2023-03-12T02:22:40.402Z,79.38
2023-03-12T02:25:33.657Z,79.25
2023-03-12T02:28:07.149Z,78.95
2023-03-12T02:30:38.514Z,78.11
2023-03-12T02:33:11.833Z,78.57
2023-03-12T02:35:42.533Z,78.59
2023-03-12T02:38:36.501Z,78.65
2023-03-12T02:41:15.622Z,78.59
2023-03-12T02:43:48.874Z,78.31
2023-03-12T02:46:20.309Z,78.46
2023-03-12T02:48:51.085Z,78.48
2023-03-12T02:51:22.151Z,78.47
2023-03-12T02:53:55.195Z,78.57
2023-03-12T02:56:31.982Z,78.47
2023-03-12T02:59:04.469Z,78.01
2023-03-12T03:01:38.296Z,78.68
2023-03-12T03:04:10.540Z,78.61
2023-03-12T03:06:44.176Z,78.83
2023-03-12T03:09:15.512Z,78.13
2023-03-12T03:11:48.706Z,78.60
2023-03-12T03:14:19.789Z,78.87
2023-03-12T03:16:53.048Z,78.72
2023-03-12T03:19:26.308Z,78.87
2023-03-12T03:21:57.016Z,79.07
2023-03-12T03:24:27.751Z,79.36
2023-03-12T03:27:00.894Z,79.40
2023-03-12T03:29:31.656Z,79.26
2023-03-12T03:32:03.143Z,79.24
2023-03-12T03:34:33.812Z,79.35
2023-03-12T03:37:04.335Z,79.40
2023-03-12T03:39:36.443Z,79.53
2023-03-12T03:42:09.978Z,79.54
2023-03-12T03:44:40.681Z,79.76
2023-03-12T03:47:11.386Z,79.56
2023-03-12T03:49:42.067Z,79.48
2023-03-12T03:52:12.669Z,79.47
2023-03-12T03:54:43.309Z,79.71
2023-03-12T03:57:16.779Z,79.63
2023-03-12T03:59:47.337Z,79.49
2023-03-12T04:02:18.621Z,79.34
2023-03-12T04:04:49.215Z,79.48
2023-03-12T04:07:21.401Z,79.43
2023-03-12T04:09:52.215Z,79.56
2023-03-12T04:12:26.162Z,79.60
2023-03-12T04:14:56.838Z,79.42
2023-03-12T04:17:27.453Z,79.53
2023-03-12T04:20:00.592Z,79.30
2023-03-12T04:22:31.236Z,79.30
2023-03-12T04:25:01.872Z,79.38
2023-03-12T04:27:35.308Z,79.36
2023-03-12T04:30:06.752Z,79.47
2023-03-12T04:32:39.119Z,79.36
2023-03-12T04:35:10.499Z,79.37
2023-03-12T04:37:40.971Z,79.43
2023-03-12T04:40:14.041Z,79.25
2023-03-12T04:42:48.058Z,79.35
2023-03-12T04:45:19.383Z,79.25
2023-03-12T04:47:51.261Z,79.11
2023-03-12T04:50:22.308Z,78.97
2023-03-12T04:52:52.940Z,78.71
2023-03-12T04:55:23.647Z,78.59
2023-03-12T04:57:57.230Z,78.58
2023-03-12T05:00:28.605Z,78.63
2023-03-12T05:02:59.747Z,78.57
2023-03-12T05:05:30.907Z,78.61
2023-03-12T05:08:02.116Z,78.96
2023-03-12T05:10:33.200Z,79.00
2023-03-12T05:13:06.719Z,79.15
2023-03-12T05:15:40.049Z,79.41
2023-03-12T05:18:10.624Z,79.13
2023-03-12T05:20:41.577Z,78.95
2023-03-12T05:23:12.145Z,78.57
2023-03-12T05:25:43.224Z,78.60
2023-03-12T05:28:16.679Z,78.70
2023-03-12T05:30:47.253Z,78.30
2023-03-12T05:33:18.016Z,78.07
2023-03-12T05:35:48.678Z,78.06
2023-03-12T05:38:19.436Z,78.07
2023-03-12T05:40:55.982Z,78.04
2023-03-12T05:43:30.512Z,77.93
2023-03-12T05:46:02.519Z,77.74
2023-03-12T05:48:33.345Z,77.86
2023-03-12T05:51:04.329Z,77.83
2023-03-12T05:53:36.703Z,77.87
2023-03-12T05:56:08.263Z,77.89
2023-03-12T05:58:41.886Z,77.64
2023-03-12T06:01:18.106Z,77.85
2023-03-12T06:03:49.640Z,77.99
2023-03-12T06:06:20.793Z,77.85
2023-03-12T06:08:51.620Z,77.63
2023-03-12T06:11:22.422Z,77.73
2023-03-12T06:13:55.753Z,77.55
2023-03-12T06:16:28.481Z,77.85
2023-03-12T06:19:00.900Z,77.36
2023-03-12T06:21:33.956Z,77.33
2023-03-12T06:24:05.779Z,77.38
2023-03-12T06:26:47.511Z,77.14
2023-03-12T06:29:20.613Z,77.10
2023-03-12T06:31:52.406Z,77.16
2023-03-12T06:34:22.991Z,77.34
2023-03-12T06:36:53.606Z,77.38
2023-03-12T06:39:24.499Z,77.10
2023-03-12T06:41:55.025Z,77.12
2023-03-12T06:44:28.167Z,77.13
2023-03-12T06:46:58.912Z,77.08
2023-03-12T06:49:32.288Z,77.03
2023-03-12T06:52:02.936Z,77.17
2023-03-12T06:54:33.612Z,76.73
2023-03-12T06:57:04.169Z,76.82
2023-03-12T06:59:37.246Z,76.70
2023-03-12T07:02:08.040Z,76.80
2023-03-12T07:04:38.699Z,76.83
2023-03-12T07:07:09.438Z,76.60
2023-03-12T07:09:40.059Z,76.42
2023-03-12T07:12:11.715Z,76.08
2023-03-12T07:14:44.948Z,75.98
2023-03-12T07:17:15.692Z,76.28
2023-03-12T07:19:48.111Z,76.21
2023-03-12T07:22:19.851Z,75.68
2023-03-12T07:24:51.406Z,75.79
2023-03-12T07:27:22.376Z,75.76
2023-03-12T07:29:55.466Z,75.86
2023-03-12T07:32:26.457Z,75.75
2023-03-12T07:34:57.109Z,75.33
2023-03-12T07:37:27.588Z,75.37
2023-03-12T07:39:58.375Z,74.89
2023-03-12T07:42:29.336Z,74.51
2023-03-12T07:45:04.300Z,74.83
2023-03-12T07:47:34.719Z,73.71
2023-03-12T07:50:05.574Z,74.41
2023-03-12T07:52:36.208Z,74.71
2023-03-12T07:55:07.243Z,74.33
2023-03-12T07:57:38.034Z,74.48
2023-03-12T08:00:13.082Z,73.98
2023-03-12T08:02:44.142Z,73.82
2023-03-12T08:05:14.922Z,73.61
2023-03-12T08:07:45.556Z,73.73
2023-03-12T08:10:16.136Z,74.07
2023-03-12T08:12:47.040Z,73.38
2023-03-12T08:15:20.631Z,73.81
2023-03-12T08:17:51.514Z,73.04
2023-03-12T08:20:22.343Z,73.05
2023-03-12T08:22:52.976Z,73.31
2023-03-12T08:25:24.943Z,73.25
2023-03-12T08:27:55.734Z,73.36
2023-03-12T08:30:30.302Z,73.08
2023-03-12T08:33:01.223Z,72.85
2023-03-12T08:35:32.172Z,73.12
2023-03-12T08:38:02.865Z,73.32
2023-03-12T08:40:33.534Z,73.32
2023-03-12T08:43:04.275Z,73.19
2023-03-12T08:45:38.234Z,73.02
2023-03-12T08:48:10.051Z,72.98
2023-03-12T08:50:40.780Z,73.26
2023-03-12T08:53:12.110Z,72.85
2023-03-12T08:55:42.951Z,72.64
2023-03-12T08:58:13.513Z,72.78
2023-03-12T09:00:47.058Z,72.89
2023-03-12T09:03:18.074Z,72.94
2023-03-12T09:05:49.088Z,72.79
2023-03-12T09:08:20.296Z,72.73
2023-03-12T09:10:51.858Z,72.97
2023-03-12T09:13:22.796Z,73.18
2023-03-12T09:15:56.077Z,73.28
2023-03-12T09:18:27.063Z,73.28
2023-03-12T09:20:58.995Z,72.69
2023-03-12T09:23:30.549Z,72.23
2023-03-12T09:26:01.336Z,72.70
2023-03-12T09:28:31.949Z,72.83
2023-03-12T09:31:08.331Z,72.90
2023-03-12T09:33:39.008Z,72.70
2023-03-12T09:36:10.142Z,72.66
2023-03-12T09:38:40.700Z,72.79
2023-03-12T09:41:21.142Z,72.05
2023-03-12T09:43:57.087Z,72.67
2023-03-12T09:46:37.760Z,72.03
2023-03-12T09:49:19.089Z,71.93
2023-03-12T09:51:54.171Z,71.98
2023-03-12T09:54:31.236Z,72.41
2023-03-12T09:57:05.710Z,72.23
2023-03-12T09:59:37.094Z,72.20
2023-03-12T10:02:27.751Z,72.15
2023-03-12T10:05:02.214Z,71.25
2023-03-12T10:07:37.827Z,71.19
2023-03-12T10:10:33.018Z,71.44
2023-03-12T10:13:21.884Z,71.41
2023-03-12T10:16:04.770Z,71.03
2023-03-12T10:18:56.088Z,70.48
2023-03-12T10:21:37.703Z,70.48
2023-03-12T10:24:25.315Z,70.54
2023-03-12T10:27:01.958Z,70.59
2023-03-12T10:29:35.718Z,70.63
2023-03-12T10:32:11.257Z,71.20
2023-03-12T10:34:48.469Z,71.07
2023-03-12T10:37:24.823Z,71.63
2023-03-12T10:39:56.385Z,71.39
2023-03-12T10:42:28.296Z,71.00
2023-03-12T10:45:02.978Z,71.28
2023-03-12T10:47:38.579Z,71.48
2023-03-12T10:50:23.828Z,71.56
2023-03-12T10:52:57.341Z,71.63
2023-03-12T10:55:30.071Z,71.20
2023-03-12T10:58:01.064Z,71.68
2023-03-12T11:00:33.968Z,71.83
2023-03-12T11:03:07.018Z,72.29
2023-03-12T11:05:51.385Z,72.47
2023-03-12T11:08:24.913Z,73.10
2023-03-12T11:10:56.269Z,73.06
2023-03-12T11:13:31.517Z,73.57
2023-03-12T11:16:03.814Z,72.51
2023-03-12T11:18:37.252Z,72.67
2023-03-12T11:21:22.284Z,72.62
2023-03-12T11:24:10.014Z,72.57
2023-03-12T11:26:49.402Z,73.96
2023-03-12T11:29:28.392Z,74.09
2023-03-12T11:32:08.048Z,74.03
2023-03-12T11:34:41.492Z,74.69
2023-03-12T11:37:24.029Z,74.62
2023-03-12T11:40:12.620Z,74.41
2023-03-12T11:42:56.106Z,74.06
2023-03-12T11:45:32.455Z,74.15
2023-03-12T11:48:15.878Z,73.79
2023-03-12T11:50:56.261Z,74.24
2023-03-12T11:53:43.196Z,74.26
2023-03-12T11:56:27.860Z,74.50
2023-03-12T11:59:28.965Z,74.58
2023-03-12T12:02:14.730Z,74.83
2023-03-12T12:05:21.181Z,75.32
2023-03-12T12:08:03.452Z,75.74
2023-03-12T12:10:45.495Z,76.04
2023-03-12T12:13:27.125Z,76.13
2023-03-12T12:16:10.581Z,76.09
2023-03-12T12:19:03.440Z,76.10
2023-03-12T12:21:55.569Z,76.21
2023-03-12T12:24:40.707Z,76.31
2023-03-12T12:27:22.642Z,76.86
2023-03-12T12:30:09.371Z,77.30
2023-03-12T12:32:55.384Z,77.35
2023-03-12T12:35:33.211Z,77.30
2023-03-12T12:38:09.868Z,77.58
2023-03-12T12:40:43.706Z,77.57
2023-03-12T12:43:28.365Z,77.36
2023-03-12T12:46:03.018Z,77.70
2023-03-12T12:48:39.620Z,77.96
2023-03-12T12:51:12.452Z,77.97
2023-03-12T12:53:50.585Z,78.09
2023-03-12T12:56:32.064Z,78.24
2023-03-12T12:59:25.130Z,77.86
2023-03-12T13:01:57.493Z,77.95
2023-03-12T13:04:31.187Z,78.24
2023-03-12T13:07:07.041Z,77.77
2023-03-12T13:09:43.931Z,78.00
2023-03-12T13:12:23.323Z,77.98
2023-03-12T13:14:57.809Z,77.69
2023-03-12T13:17:31.687Z,77.81
2023-03-12T13:20:20.996Z,78.17
2023-03-12T13:23:03.940Z,78.84
2023-03-12T13:25:50.325Z,78.57
2023-03-12T13:28:35.102Z,78.30
2023-03-12T13:31:39.289Z,77.98
2023-03-12T13:34:54.782Z,77.84
2023-03-12T13:37:50.780Z,78.27
2023-03-12T13:40:37.850Z,78.39
2023-03-12T13:43:15.608Z,78.20
2023-03-12T13:46:03.257Z,77.89
2023-03-12T13:48:38.817Z,77.53
2023-03-12T13:51:19.717Z,77.61
2023-03-12T13:53:53.001Z,77.76
2023-03-12T13:56:29.235Z,77.85
2023-03-12T13:59:04.296Z,77.78
2023-03-12T14:01:39.676Z,77.94
2023-03-12T14:04:20.308Z,77.93
2023-03-12T14:07:01.811Z,78.00
2023-03-12T14:09:43.121Z,77.76
2023-03-12T14:12:21.649Z,77.82
2023-03-12T14:15:10.381Z,78.18
2023-03-12T14:17:42.426Z,78.05
2023-03-12T14:20:21.615Z,78.15
2023-03-12T14:22:57.376Z,78.06
2023-03-12T14:25:38.218Z,78.18
2023-03-12T14:28:16.399Z,78.51
2023-03-12T14:30:53.456Z,78.33
2023-03-12T14:33:29.045Z,78.26
2023-03-12T14:36:10.269Z,78.29
2023-03-12T14:38:44.058Z,77.85
2023-03-12T14:41:19.473Z,77.96
2023-03-12T14:43:54.819Z,78.13
2023-03-12T14:46:27.486Z,78.09
2023-03-12T14:48:58.147Z,78.45
2023-03-12T14:51:33.423Z,78.24
2023-03-12T14:54:05.606Z,78.56
2023-03-12T14:56:37.370Z,78.32
2023-03-12T14:59:25.574Z,78.25
2023-03-12T15:02:02.704Z,78.26
2023-03-12T15:04:36.170Z,78.20
2023-03-12T15:07:14.472Z,77.90
2023-03-12T15:09:49.983Z,77.84
2023-03-12T15:12:23.681Z,77.82
2023-03-12T15:14:58.604Z,77.80
2023-03-12T15:17:32.204Z,78.25
2023-03-12T15:20:09.505Z,78.43
2023-03-12T15:22:44.175Z,78.52
2023-03-12T15:25:28.656Z,78.55
2023-03-12T15:28:09.464Z,78.85
2023-03-12T15:30:42.064Z,78.87
2023-03-12T15:33:14.913Z,78.60
2023-03-12T15:36:02.286Z,78.88
2023-03-12T15:38:38.433Z,78.99
2023-03-12T15:41:12.270Z,79.11
2023-03-12T15:43:47.998Z,79.27
2023-03-12T15:46:21.300Z,78.86
2023-03-12T15:48:54.171Z,79.05
2023-03-12T15:51:37.140Z,78.64
2023-03-12T15:54:28.611Z,78.85
2023-03-12T15:57:14.956Z,78.92
2023-03-12T15:59:46.337Z,79.20
2023-03-12T16:02:16.944Z,78.98
2023-03-12T16:04:50.064Z,78.97
2023-03-12T16:07:20.799Z,79.01
2023-03-12T16:09:54.143Z,78.91
2023-03-12T16:12:25.007Z,78.73
2023-03-12T16:14:56.149Z,78.77
2023-03-12T16:17:26.872Z,78.81
2023-03-12T16:19:57.601Z,78.84
2023-03-12T16:22:29.072Z,78.83
2023-03-12T16:25:02.737Z,78.68
2023-03-12T16:27:39.194Z,78.85
2023-03-12T16:30:17.796Z,78.71
2023-03-12T16:32:48.522Z,78.61
2023-03-12T16:35:21.338Z,78.85
2023-03-12T16:37:52.634Z,78.88
2023-03-12T16:40:33.281Z,78.77
2023-03-12T16:43:06.870Z,78.98
2023-03-12T16:45:39.317Z,78.75
2023-03-12T16:48:10.190Z,78.67
2023-03-12T16:50:40.961Z,78.68
2023-03-12T16:53:14.624Z,78.92
2023-03-12T16:55:52.867Z,79.27
2023-03-12T16:58:25.110Z,79.17
2023-03-12T17:01:00.210Z,79.16
2023-03-12T17:03:36.565Z,79.34
2023-03-12T17:06:09.405Z,79.37
2023-03-12T17:08:40.206Z,79.27
2023-03-12T17:11:19.808Z,79.44
2023-03-12T17:13:53.658Z,79.44
2023-03-12T17:16:24.426Z,79.57
2023-03-12T17:18:55.538Z,79.33
2023-03-12T17:21:26.400Z,79.58
2023-03-12T17:24:11.961Z,79.31
2023-03-12T17:26:46.533Z,79.48
2023-03-12T17:29:16.891Z,80.09
2023-03-12T17:31:47.604Z,79.65
2023-03-12T17:34:18.582Z,79.45
2023-03-12T17:36:49.145Z,79.34
2023-03-12T17:39:20.277Z,79.38
2023-03-12T17:41:53.622Z,79.37
2023-03-12T17:44:24.357Z,79.74
2023-03-12T17:46:59.744Z,79.43
2023-03-12T17:49:30.770Z,79.67
2023-03-12T17:52:02.194Z,79.57
2023-03-12T17:54:33.062Z,79.26
2023-03-12T17:57:06.415Z,79.73
2023-03-12T17:59:36.957Z,79.58
2023-03-12T18:02:07.471Z,79.70
2023-03-12T18:04:38.075Z,79.93
2023-03-12T18:07:08.645Z,79.65
2023-03-12T18:09:39.243Z,79.76
2023-03-12T18:12:13.001Z,79.62
2023-03-12T18:14:43.951Z,79.32
2023-03-12T18:17:14.974Z,79.04
2023-03-12T18:19:46.056Z,79.30
2023-03-12T18:22:24.805Z,78.92
2023-03-12T18:24:59.983Z,79.08
2023-03-12T18:27:34.563Z,79.03
2023-03-12T18:30:06.135Z,78.95
2023-03-12T18:32:39.548Z,78.90
2023-03-12T18:35:13.283Z,78.62
2023-03-12T18:37:46.655Z,78.82
2023-03-12T18:40:17.234Z,78.85
2023-03-12T18:42:53.211Z,78.87
2023-03-12T18:45:26.057Z,78.66
2023-03-12T18:47:59.772Z,78.86
2023-03-12T18:50:32.570Z,78.84
2023-03-12T18:53:19.942Z,78.76
2023-03-12T18:55:55.432Z,78.88
2023-03-12T18:58:40.196Z,78.98
2023-03-12T19:01:19.009Z,78.94
2023-03-12T19:03:51.266Z,78.97
2023-03-12T19:06:29.643Z,79.03
2023-03-12T19:09:07.863Z,79.54
2023-03-12T19:11:44.627Z,79.24
2023-03-12T19:14:21.142Z,78.86
2023-03-12T19:16:51.630Z,79.00
2023-03-12T19:19:22.553Z,78.73
2023-03-12T19:21:53.329Z,78.75
2023-03-12T19:24:24.078Z,78.73
2023-03-12T19:26:54.831Z,78.49
2023-03-12T19:29:28.313Z,78.43
2023-03-12T19:31:59.244Z,78.33
2023-03-12T19:34:30.104Z,78.59
2023-03-12T19:37:00.670Z,78.52
2023-03-12T19:39:31.246Z,78.41
2023-03-12T19:42:01.947Z,78.50
2023-03-12T19:44:38.981Z,78.34
2023-03-12T19:47:09.881Z,78.65
2023-03-12T19:49:40.963Z,78.89
2023-03-12T19:52:14.135Z,78.78
2023-03-12T19:54:51.707Z,79.06
2023-03-12T19:57:26.142Z,78.59
2023-03-12T19:59:59.944Z,78.76
2023-03-12T20:02:30.757Z,78.68
2023-03-12T20:05:03.729Z,78.49
2023-03-12T20:07:34.730Z,78.48
2023-03-12T20:10:05.758Z,78.83
2023-03-12T20:12:36.509Z,78.64
2023-03-12T20:15:11.096Z,79.16
2023-03-12T20:17:42.192Z,79.12
2023-03-12T20:20:14.376Z,79.06
2023-03-12T20:22:44.941Z,78.90
2023-03-12T20:25:15.516Z,79.17
2023-03-12T20:27:46.319Z,78.83
2023-03-12T20:30:19.562Z,78.98
2023-03-12T20:32:50.227Z,79.24
2023-03-12T20:35:21.059Z,79.32
2023-03-12T20:37:52.172Z,79.07
2023-03-12T20:40:22.963Z,78.80
2023-03-12T20:42:53.730Z,79.17
2023-03-12T20:45:27.013Z,78.94
2023-03-12T20:47:58.790Z,79.05
2023-03-12T20:50:29.373Z,79.29
2023-03-12T20:52:59.785Z,79.56
2023-03-12T20:55:30.609Z,79.26
2023-03-12T20:58:01.599Z,79.48
2023-03-12T21:00:34.889Z,79.58
2023-03-12T21:03:05.361Z,79.45
2023-03-12T21:05:35.945Z,79.75
2023-03-12T21:08:06.956Z,79.66
2023-03-12T21:10:39.231Z,79.85
2023-03-12T21:13:09.793Z,80.13
2023-03-12T21:15:43.012Z,80.00
2023-03-12T21:18:13.638Z,80.36
2023-03-12T21:20:45.518Z,80.07
2023-03-12T21:23:16.311Z,80.17
2023-03-12T21:25:46.802Z,80.63
2023-03-12T21:28:18.325Z,80.16
2023-03-12T21:30:51.472Z,80.28
2023-03-12T21:33:22.053Z,80.36
2023-03-12T21:35:52.678Z,80.30
2023-03-12T21:38:23.608Z,79.93
2023-03-12T21:40:57.500Z,80.13
2023-03-12T21:43:28.409Z,80.29
2023-03-12T21:46:06.265Z,80.37
2023-03-12T21:48:37.116Z,80.28
2023-03-12T21:51:10.369Z,80.22
2023-03-12T21:53:41.751Z,80.48
2023-03-12T21:56:12.968Z,80.59
2023-03-12T21:58:44.423Z,80.59
2023-03-12T22:01:19.533Z,80.30
2023-03-12T22:03:50.378Z,79.96
2023-03-12T22:06:20.980Z,79.98
2023-03-12T22:08:52.468Z,79.91
2023-03-12T22:11:23.055Z,79.75
2023-03-12T22:13:53.601Z,79.78
2023-03-12T22:16:26.976Z,79.58
2023-03-12T22:18:57.530Z,79.67
2023-03-12T22:21:28.840Z,79.67
2023-03-12T22:24:00.007Z,79.56
2023-03-12T22:26:31.021Z,79.41
2023-03-12T22:29:02.304Z,79.25
2023-03-12T22:31:35.821Z,79.23
2023-03-12T22:34:06.928Z,79.17
2023-03-12T22:36:37.597Z,79.09
2023-03-12T22:39:08.540Z,79.26
2023-03-12T22:41:39.267Z,79.34
2023-03-12T22:44:10.587Z,78.93
2023-03-12T22:46:43.901Z,79.05
2023-03-12T22:49:14.448Z,79.07
2023-03-12T22:51:45.201Z,78.91
2023-03-12T22:54:15.752Z,78.93
2023-03-12T22:56:46.260Z,78.86
2023-03-12T22:59:16.797Z,78.82
2023-03-12T23:01:49.913Z,79.14
2023-03-12T23:04:20.549Z,79.18
2023-03-12T23:06:51.742Z,79.25
2023-03-12T23:09:24.805Z,79.41
2023-03-12T23:11:55.428Z,79.08
2023-03-12T23:14:26.011Z,78.94
2023-03-12T23:17:00.149Z,78.99
2023-03-12T23:19:35.093Z,78.87
2023-03-12T23:22:05.635Z,78.74
2023-03-12T23:24:36.341Z,78.90
2023-03-12T23:27:07.418Z,78.78
2023-03-12T23:29:38.224Z,78.66
2023-03-12T23:32:11.594Z,78.62
2023-03-12T23:34:42.154Z,78.89
2023-03-12T23:37:12.931Z,78.67
2023-03-12T23:39:54.031Z,78.53
2023-03-12T23:42:25.474Z,78.44
2023-03-12T23:44:55.949Z,78.71
2023-03-12T23:47:29.049Z,78.81
2023-03-12T23:49:59.802Z,78.73
2023-03-12T23:52:30.432Z,78.95
2023-03-12T23:55:01.242Z,78.99
2023-03-12T23:57:32.385Z,78.77
